Time;durP1;ratioP1;P1;durP2;ratioP2;P2;SDS_P1;SDS_P2;PMS_P1;PMS_P2;Temp;Humidity;BMP_temperature;BMP_pressure;BME280_temperature;BME280_humidity;BME280_pressure;Samples;Min_cycle;Max_cycle;Signal;HPM_P1;HPM_P2
2021/10/17 00:00:10;;;;;;;11.23;7.60;;;10.40;99.90;;;;;;5089510;23;20226;-78
2021/10/17 00:02:36;;;;;;;14.07;8.13;;;10.20;99.90;;;;;;5074017;28;20242;-78
2021/10/17 00:05:02;;;;;;;14.23;7.75;;;10.40;99.90;;;;;;5074147;28;20254;-78
2021/10/17 00:07:28;;;;;;;11.85;7.32;;;10.70;99.90;;;;;;5073763;28;20174;-79
2021/10/17 00:09:54;;;;;;;11.75;7.65;;;10.90;99.90;;;;;;5073743;28;20524;-79
2021/10/17 00:12:19;;;;;;;10.60;6.80;;;10.90;99.90;;;;;;5073725;28;20521;-79
2021/10/17 00:14:45;;;;;;;10.27;7.90;;;11.00;99.90;;;;;;5073573;28;20173;-79
2021/10/17 00:17:10;;;;;;;13.25;7.40;;;11.00;99.90;;;;;;5073531;28;20189;-77
2021/10/17 00:19:36;;;;;;;19.92;8.13;;;11.00;99.90;;;;;;5073509;28;20598;-78
2021/10/17 00:22:03;;;;;;;14.73;7.85;;;11.00;99.90;;;;;;5073384;28;20173;-78
2021/10/17 00:24:29;;;;;;;13.57;7.60;;;11.10;99.90;;;;;;5073471;28;20162;-78
2021/10/17 00:26:54;;;;;;;13.70;7.88;;;11.20;99.90;;;;;;5073433;28;20645;-78
2021/10/17 00:29:20;;;;;;;13.73;7.45;;;11.30;99.90;;;;;;5071968;28;20206;-78
2021/10/17 00:31:46;;;;;;;12.23;7.28;;;11.20;99.90;;;;;;5073456;28;20289;-78
2021/10/17 00:34:11;;;;;;;15.30;7.38;;;11.40;99.90;;;;;;5073335;28;20170;-79
2021/10/17 00:36:37;;;;;;;15.63;6.97;;;11.50;99.90;;;;;;5072181;28;20506;-80
2021/10/17 00:39:05;;;;;;;15.82;7.75;;;11.30;99.90;;;;;;5073357;28;20184;-79
2021/10/17 00:41:31;;;;;;;10.15;7.32;;;11.20;99.90;;;;;;5073227;28;20202;-79
2021/10/17 00:43:58;;;;;;;21.30;8.32;;;11.10;99.90;;;;;;5073119;28;20198;-79
2021/10/17 00:46:24;;;;;;;7.28;6.32;;;11.20;99.90;;;;;;5073131;28;20249;-79
2021/10/17 00:48:50;;;;;;;18.95;8.50;;;11.40;99.90;;;;;;5073067;28;20274;-78
2021/10/17 00:51:16;;;;;;;12.55;6.65;;;11.40;99.90;;;;;;5073042;28;20233;-78
2021/10/17 00:53:43;;;;;;;8.43;6.18;;;11.30;99.90;;;;;;5071807;28;20574;-77
2021/10/17 00:56:09;;;;;;;10.75;6.43;;;11.10;99.90;;;;;;5072984;28;20182;-78
2021/10/17 00:58:35;;;;;;;12.50;7.10;;;11.10;99.90;;;;;;5072505;28;20178;-78
2021/10/17 01:01:01;;;;;;;11.18;7.28;;;11.00;99.90;;;;;;5072980;28;20170;-78
2021/10/17 01:03:27;;;;;;;11.48;7.15;;;11.10;99.90;;;;;;5072701;28;20169;-78
2021/10/17 01:05:54;;;;;;;12.60;6.85;;;11.30;99.90;;;;;;5071570;28;20247;-79
2021/10/17 01:08:20;;;;;;;9.23;6.95;;;11.30;99.90;;;;;;5072902;28;20185;-79
2021/10/17 01:10:47;;;;;;;14.55;6.95;;;11.40;99.90;;;;;;5072891;28;20562;-79
2021/10/17 01:13:18;;;;;;;12.98;6.68;;;11.40;99.90;;;;;;5072606;28;20154;-79
2021/10/17 01:15:49;;;;;;;13.30;7.85;;;11.30;99.90;;;;;;5072740;28;20174;-77
2021/10/17 01:18:15;;;;;;;25.75;8.68;;;11.20;99.90;;;;;;5072511;28;20174;-77
2021/10/17 01:20:41;;;;;;;18.63;7.45;;;11.30;99.90;;;;;;5072798;28;20178;-77
2021/10/17 01:23:07;;;;;;;14.32;7.22;;;11.10;99.90;;;;;;5072630;28;20174;-78
2021/10/17 01:25:32;;;;;;;12.25;6.43;;;11.00;99.90;;;;;;5072663;28;20247;-80
2021/10/17 01:27:58;;;;;;;12.02;7.22;;;11.10;99.90;;;;;;5072869;28;20281;-80
2021/10/17 01:30:24;;;;;;;12.98;6.75;;;11.20;99.90;;;;;;5072229;28;20206;-79
2021/10/17 01:32:49;;;;;;;12.23;6.65;;;11.30;99.90;;;;;;5072427;28;20684;-80
2021/10/17 01:35:15;;;;;;;10.88;6.80;;;11.20;99.90;;;;;;5072600;28;20171;-81
2021/10/17 01:37:41;;;;;;;9.32;6.75;;;11.00;99.90;;;;;;5072510;28;20677;-78
2021/10/17 01:40:07;;;;;;;9.13;6.57;;;11.10;99.90;;;;;;5072637;28;20174;-81
2021/10/17 01:42:33;;;;;;;14.05;6.28;;;11.10;99.90;;;;;;5072576;28;20166;-80
2021/10/17 01:44:59;;;;;;;14.75;6.25;;;11.20;99.90;;;;;;5072401;28;20174;-79
2021/10/17 01:47:25;;;;;;;14.52;7.03;;;11.40;99.90;;;;;;5070807;28;20182;-79
2021/10/17 01:49:51;;;;;;;7.97;5.82;;;11.50;99.90;;;;;;5072352;28;20548;-80
2021/10/17 01:52:16;;;;;;;12.88;7.07;;;11.40;99.90;;;;;;5072169;28;20179;-78
2021/10/17 01:54:42;;;;;;;13.38;7.63;;;11.20;99.90;;;;;;5072323;28;20677;-78
2021/10/17 01:57:08;;;;;;;11.40;6.60;;;11.00;99.90;;;;;;5072341;28;20273;-80
2021/10/17 01:59:34;;;;;;;10.98;6.53;;;11.20;99.90;;;;;;5072354;28;20182;-79
2021/10/17 02:01:59;;;;;;;9.48;6.30;;;11.10;99.90;;;;;;5072125;28;20167;-78
2021/10/17 02:04:25;;;;;;;12.43;7.05;;;11.20;99.90;;;;;;5072397;28;20171;-79
2021/10/17 02:06:51;;;;;;;22.73;6.68;;;11.20;99.90;;;;;;5072183;28;20166;-79
2021/10/17 02:09:16;;;;;;;21.90;7.40;;;11.10;99.90;;;;;;5072184;28;20169;-79
2021/10/17 02:11:42;;;;;;;11.45;6.57;;;11.10;99.90;;;;;;5075119;28;20202;-78
2021/10/17 02:14:08;;;;;;;14.18;6.70;;;11.30;99.90;;;;;;5076040;28;20167;-79
2021/10/17 02:16:33;;;;;;;14.88;6.32;;;11.30;99.90;;;;;;5075882;28;20179;-78
2021/10/17 02:18:59;;;;;;;18.35;6.93;;;11.20;99.90;;;;;;5075896;28;20205;-78
2021/10/17 02:21:25;;;;;;;7.57;6.75;;;11.10;99.90;;;;;;5075823;28;20174;-79
2021/10/17 02:23:51;;;;;;;11.30;7.15;;;11.00;99.90;;;;;;5076056;28;20166;-79
2021/10/17 02:26:16;;;;;;;11.00;6.57;;;11.10;99.90;;;;;;5075923;28;20166;-78
2021/10/17 02:28:42;;;;;;;10.05;7.45;;;11.10;99.90;;;;;;5075753;28;20187;-78
2021/10/17 02:31:07;;;;;;;14.20;7.22;;;11.10;99.90;;;;;;5075665;28;20208;-79
2021/10/17 02:33:33;;;;;;;11.95;7.68;;;11.20;99.90;;;;;;5075732;28;20247;-78
2021/10/17 02:36:00;;;;;;;13.45;6.53;;;11.20;99.90;;;;;;5075503;28;20174;-79
2021/10/17 02:38:26;;;;;;;13.48;7.45;;;11.40;99.90;;;;;;5075205;28;20186;-80
2021/10/17 02:40:52;;;;;;;9.63;6.55;;;11.50;99.90;;;;;;5075719;28;20692;-79
2021/10/17 02:43:18;;;;;;;12.27;6.55;;;11.60;99.90;;;;;;5075770;28;20178;-80
2021/10/17 02:45:46;;;;;;;13.95;7.05;;;11.60;99.90;;;;;;5075351;28;20205;-79
2021/10/17 02:48:11;;;;;;;11.48;5.63;;;11.50;99.90;;;;;;5075081;28;20255;-78
2021/10/17 02:50:37;;;;;;;13.75;7.05;;;11.50;99.90;;;;;;5075218;28;20612;-79
2021/10/17 02:53:03;;;;;;;14.68;5.75;;;11.50;99.90;;;;;;5075200;28;20242;-79
2021/10/17 02:55:28;;;;;;;15.05;6.70;;;11.50;99.90;;;;;;5075218;28;20171;-79
2021/10/17 02:57:54;;;;;;;8.43;6.00;;;11.40;99.90;;;;;;5074152;28;20186;-79
2021/10/17 03:00:20;;;;;;;12.70;6.18;;;11.50;99.90;;;;;;5074944;28;20603;-79
2021/10/17 03:02:46;;;;;;;13.05;5.93;;;11.60;99.90;;;;;;5073583;28;20174;-79
2021/10/17 03:05:11;;;;;;;11.07;5.68;;;11.70;99.90;;;;;;5075042;28;20171;-79
2021/10/17 03:07:37;;;;;;;9.98;6.15;;;11.70;99.90;;;;;;5074974;28;20599;-79
2021/10/17 03:10:03;;;;;;;14.45;6.30;;;11.70;99.90;;;;;;5075533;28;20210;-78
2021/10/17 03:12:29;;;;;;;11.73;5.88;;;11.60;99.90;;;;;;5075313;28;20166;-78
2021/10/17 03:14:55;;;;;;;15.98;6.78;;;11.60;99.90;;;;;;5083696;28;20174;-79
2021/10/17 03:17:20;;;;;;;10.85;6.10;;;11.80;99.90;;;;;;5096002;28;20194;-78
2021/10/17 03:19:46;;;;;;;18.65;6.13;;;11.80;99.90;;;;;;5095812;28;20158;-79
2021/10/17 03:22:11;;;;;;;13.90;5.38;;;11.90;99.90;;;;;;5095098;28;20222;-78
2021/10/17 03:24:37;;;;;;;13.48;6.75;;;11.90;99.90;;;;;;5095312;28;20166;-76
2021/10/17 03:27:03;;;;;;;15.43;6.00;;;11.80;99.90;;;;;;5076602;28;20226;-78
2021/10/17 03:29:28;;;;;;;18.38;5.50;;;11.80;99.90;;;;;;5078303;28;20169;-79
2021/10/17 03:31:54;;;;;;;8.40;5.97;;;11.90;99.90;;;;;;5076172;28;20249;-80
2021/10/17 03:34:19;;;;;;;15.70;5.63;;;11.90;99.90;;;;;;5074467;28;20167;-77
2021/10/17 03:36:45;;;;;;;15.90;6.07;;;11.90;99.90;;;;;;5074542;28;20581;-78
2021/10/17 03:39:11;;;;;;;10.98;5.63;;;12.00;99.90;;;;;;5074381;28;20182;-78
2021/10/17 03:41:36;;;;;;;18.95;5.95;;;11.80;99.90;;;;;;5074208;28;20580;-78
2021/10/17 03:44:04;;;;;;;13.93;6.88;;;11.70;99.90;;;;;;5074155;28;20177;-78
2021/10/17 03:46:29;;;;;;;8.98;6.45;;;11.90;99.90;;;;;;5074697;28;20201;-78
2021/10/17 03:48:55;;;;;;;13.52;6.45;;;12.00;99.90;;;;;;5074410;28;20194;-78
2021/10/17 03:51:21;;;;;;;11.73;5.43;;;11.90;99.90;;;;;;5073970;28;20268;-78
2021/10/17 03:53:46;;;;;;;16.77;5.57;;;11.60;99.90;;;;;;5073945;28;20166;-79
2021/10/17 03:56:12;;;;;;;14.00;5.90;;;11.60;99.90;;;;;;5074044;28;20162;-78
2021/10/17 03:58:37;;;;;;;8.75;5.47;;;11.60;99.90;;;;;;5073682;28;20191;-78
2021/10/17 04:01:03;;;;;;;12.18;6.28;;;11.70;99.90;;;;;;5073874;28;20177;-79
2021/10/17 04:03:29;;;;;;;12.65;5.95;;;11.90;99.90;;;;;;5072327;28;20174;-78
2021/10/17 04:05:55;;;;;;;17.42;6.97;;;11.90;99.90;;;;;;5074341;28;20182;-78
2021/10/17 04:08:20;;;;;;;14.18;6.57;;;12.00;99.90;;;;;;5073831;28;20182;-77
2021/10/17 04:10:46;;;;;;;19.83;6.75;;;11.90;99.90;;;;;;5073761;28;20671;-77
2021/10/17 04:13:12;;;;;;;18.63;6.10;;;11.90;99.90;;;;;;5073637;28;20202;-78
2021/10/17 04:15:37;;;;;;;11.55;5.97;;;11.70;99.90;;;;;;5073503;28;20166;-78
2021/10/17 04:18:06;;;;;;;14.48;6.57;;;11.80;99.90;;;;;;5073464;28;20277;-78
2021/10/17 04:20:32;;;;;;;11.52;6.55;;;11.80;99.90;;;;;;5073751;28;20177;-78
2021/10/17 04:22:59;;;;;;;11.65;5.15;;;11.90;99.90;;;;;;5073652;28;20150;-78
2021/10/17 04:25:25;;;;;;;26.00;6.47;;;12.00;99.90;;;;;;5073381;28;20173;-78
2021/10/17 04:27:51;;;;;;;10.68;5.97;;;12.00;99.90;;;;;;5073258;28;20190;-77
2021/10/17 04:30:17;;;;;;;20.60;6.00;;;12.10;99.90;;;;;;5073426;28;20197;-79
2021/10/17 04:32:43;;;;;;;21.77;6.25;;;12.10;99.90;;;;;;5073232;28;20552;-77
2021/10/17 04:35:09;;;;;;;11.10;6.20;;;12.10;99.90;;;;;;5073130;28;20166;-77
2021/10/17 04:37:36;;;;;;;17.08;6.35;;;11.90;99.90;;;;;;5073057;28;20332;-79
2021/10/17 04:40:05;;;;;;;15.27;5.90;;;11.90;99.90;;;;;;5072088;28;20174;-79
2021/10/17 04:42:30;;;;;;;16.17;7.18;;;12.10;99.90;;;;;;5073141;28;20167;-79
2021/10/17 04:44:58;;;;;;;10.07;5.93;;;11.90;99.90;;;;;;5073210;28;20219;-79
2021/10/17 04:47:23;;;;;;;8.30;5.60;;;11.80;99.90;;;;;;5072941;28;20548;-79
2021/10/17 04:49:49;;;;;;;14.23;5.60;;;11.80;99.90;;;;;;5071672;28;20250;-79
2021/10/17 04:52:15;;;;;;;16.35;6.20;;;12.00;99.90;;;;;;5073027;28;20819;-79
2021/10/17 04:54:40;;;;;;;21.75;6.40;;;12.00;99.90;;;;;;5072857;28;20159;-76
2021/10/17 04:57:06;;;;;;;17.45;5.57;;;11.90;99.90;;;;;;5072911;28;20202;-79
2021/10/17 04:59:31;;;;;;;13.52;6.05;;;11.90;99.90;;;;;;5072857;28;20186;-79
2021/10/17 05:01:57;;;;;;;17.95;5.50;;;12.00;99.90;;;;;;5072653;28;20171;-78
2021/10/17 05:04:23;;;;;;;21.15;6.93;;;12.00;99.90;;;;;;5072352;28;20545;-78
2021/10/17 05:06:48;;;;;;;14.50;6.35;;;12.10;99.90;;;;;;5072656;28;20205;-78
2021/10/17 05:09:14;;;;;;;13.43;5.63;;;12.20;99.90;;;;;;5072629;28;20159;-78
2021/10/17 05:11:39;;;;;;;9.68;5.95;;;12.20;99.90;;;;;;5072505;28;20206;-78
2021/10/17 05:14:05;;;;;;;6.65;5.13;;;12.20;99.90;;;;;;5072455;28;20202;-79
2021/10/17 05:16:31;;;;;;;13.10;5.70;;;12.00;99.90;;;;;;5072733;28;20170;-78
2021/10/17 05:18:56;;;;;;;15.25;6.20;;;11.90;99.90;;;;;;5072353;28;20540;-78
2021/10/17 05:21:22;;;;;;;9.85;5.15;;;11.80;99.90;;;;;;5072563;28;20162;-78
2021/10/17 05:23:48;;;;;;;13.93;5.47;;;11.90;99.90;;;;;;5072576;28;20319;-78
2021/10/17 05:26:14;;;;;;;11.90;5.57;;;11.80;99.90;;;;;;5072306;28;20295;-78
2021/10/17 05:28:39;;;;;;;18.15;7.03;;;11.90;99.90;;;;;;5072003;28;20194;-78
2021/10/17 05:31:05;;;;;;;14.98;6.70;;;11.90;99.90;;;;;;5072110;28;20665;-79
2021/10/17 05:33:31;;;;;;;17.23;6.55;;;12.00;99.90;;;;;;5071998;28;20654;-79
2021/10/17 05:35:57;;;;;;;12.63;5.47;;;12.10;99.90;;;;;;5072204;28;20623;-79
2021/10/17 05:38:23;;;;;;;10.98;5.53;;;12.10;99.90;;;;;;5072216;28;20253;-78
2021/10/17 05:40:48;;;;;;;7.82;4.60;;;12.20;99.90;;;;;;5072545;28;20573;-78
2021/10/17 05:43:14;;;;;;;12.10;5.15;;;12.20;99.90;;;;;;5072718;28;20167;-78
2021/10/17 05:45:40;;;;;;;11.05;4.90;;;12.30;99.90;;;;;;5073584;28;20662;-78
2021/10/17 05:48:05;;;;;;;12.02;5.45;;;12.20;99.90;;;;;;5076280;28;20249;-79
2021/10/17 05:50:31;;;;;;;17.23;5.18;;;12.20;99.90;;;;;;5076211;28;20259;-78
2021/10/17 05:52:57;;;;;;;22.33;6.63;;;12.20;99.90;;;;;;5076609;28;20170;-78
2021/10/17 05:55:22;;;;;;;16.92;5.95;;;12.00;99.90;;;;;;5076442;28;20590;-78
2021/10/17 05:57:48;;;;;;;16.08;5.25;;;11.90;99.90;;;;;;5076000;28;20273;-79
2021/10/17 06:00:14;;;;;;;18.00;6.32;;;12.00;99.90;;;;;;5076953;28;20193;-78
2021/10/17 06:02:41;;;;;;;19.05;6.85;;;12.10;99.90;;;;;;5076053;28;20177;-77
2021/10/17 06:05:07;;;;;;;11.32;5.60;;;12.10;99.90;;;;;;5076051;28;20155;-79
2021/10/17 06:07:35;;;;;;;17.33;6.03;;;12.00;99.90;;;;;;5076098;28;20179;-79
2021/10/17 06:10:00;;;;;;;16.50;6.28;;;12.00;99.90;;;;;;5075968;28;20158;-79
2021/10/17 06:12:27;;;;;;;12.88;5.90;;;12.20;99.90;;;;;;5076024;28;20668;-79
2021/10/17 06:14:53;;;;;;;15.65;6.18;;;12.20;99.90;;;;;;5075985;28;20243;-79
2021/10/17 06:17:19;;;;;;;22.48;6.45;;;12.10;99.90;;;;;;5075502;28;20670;-79
2021/10/17 06:19:45;;;;;;;12.27;6.80;;;12.20;99.90;;;;;;5075930;28;20167;-79
2021/10/17 06:22:10;;;;;;;17.13;6.72;;;12.20;99.90;;;;;;5076026;28;20177;-79
2021/10/17 06:24:36;;;;;;;17.20;7.40;;;12.10;99.90;;;;;;5076018;28;20537;-78
2021/10/17 06:27:02;;;;;;;20.38;7.60;;;12.20;99.90;;;;;;5075828;28;20166;-79
2021/10/17 06:29:28;;;;;;;17.10;7.68;;;12.30;99.90;;;;;;5075813;28;20530;-79
2021/10/17 06:31:54;;;;;;;23.25;6.93;;;12.40;99.90;;;;;;5075409;28;20206;-78
2021/10/17 06:34:20;;;;;;;18.50;6.78;;;12.50;99.90;;;;;;5075713;28;20615;-78
2021/10/17 06:36:47;;;;;;;14.57;6.63;;;12.40;99.90;;;;;;5075461;28;20183;-78
2021/10/17 06:39:13;;;;;;;16.60;7.50;;;12.40;99.90;;;;;;5075438;28;20241;-78
2021/10/17 06:41:38;;;;;;;19.15;6.43;;;12.30;99.90;;;;;;5074355;28;20270;-79
2021/10/17 06:44:05;;;;;;;14.75;7.43;;;12.30;99.90;;;;;;5075488;28;20631;-79
2021/10/17 06:46:31;;;;;;;24.50;7.78;;;12.40;99.90;;;;;;5075440;28;20192;-79
2021/10/17 06:48:56;;;;;;;17.88;7.43;;;12.40;99.90;;;;;;5075091;28;20658;-78
2021/10/17 06:51:22;;;;;;;17.75;6.97;;;12.30;99.90;;;;;;5075216;28;20525;-78
2021/10/17 06:53:48;;;;;;;20.90;7.50;;;12.30;99.90;;;;;;5073530;28;20703;-79
2021/10/17 06:56:13;;;;;;;19.23;9.10;;;12.10;99.90;;;;;;5075195;28;20171;-78
2021/10/17 06:58:39;;;;;;;17.30;7.32;;;11.90;99.90;;;;;;5074822;28;20186;-77
2021/10/17 07:01:04;;;;;;;24.17;8.27;;;11.90;99.90;;;;;;5073414;28;20206;-80
2021/10/17 07:03:30;;;;;;;23.55;7.47;;;11.90;99.90;;;;;;5074418;28;20251;-79
2021/10/17 07:05:57;;;;;;;22.50;8.45;;;12.00;99.90;;;;;;5075056;28;20379;-78
2021/10/17 07:08:22;;;;;;;18.33;9.40;;;12.10;99.90;;;;;;5074866;28;20178;-79
2021/10/17 07:10:49;;;;;;;21.45;9.57;;;12.40;99.90;;;;;;5074660;28;20213;-79
2021/10/17 07:13:15;;;;;;;26.63;8.95;;;12.20;99.90;;;;;;5074383;28;20162;-78
2021/10/17 07:15:40;;;;;;;25.65;8.52;;;12.00;99.90;;;;;;5073460;28;20265;-78
2021/10/17 07:18:06;;;;;;;35.80;9.65;;;12.10;99.90;;;;;;5074707;28;20194;-79
2021/10/17 07:20:31;;;;;;;23.83;9.55;;;12.20;99.90;;;;;;5074902;28;20198;-79
2021/10/17 07:22:57;;;;;;;29.48;8.85;;;12.10;99.90;;;;;;5074577;28;20205;-79
2021/10/17 07:25:23;;;;;;;36.25;9.30;;;12.20;99.90;;;;;;5074615;28;20167;-79
2021/10/17 07:27:52;;;;;;;27.27;9.48;;;12.20;99.90;;;;;;5074424;28;20193;-79
2021/10/17 07:30:19;;;;;;;20.48;9.10;;;12.10;99.90;;;;;;5074558;28;20177;-79
2021/10/17 07:32:45;;;;;;;22.38;7.57;;;12.30;99.90;;;;;;5074549;28;20164;-78
2021/10/17 07:35:10;;;;;;;23.30;9.02;;;12.40;99.90;;;;;;5073751;28;20250;-78
2021/10/17 07:37:36;;;;;;;17.98;8.10;;;12.60;99.90;;;;;;5074177;28;20488;-78
2021/10/17 07:40:03;;;;;;;19.02;8.77;;;12.50;99.90;;;;;;5072804;28;20166;-78
2021/10/17 07:42:29;;;;;;;21.15;8.00;;;12.50;99.90;;;;;;5072959;28;20602;-79
2021/10/17 07:44:54;;;;;;;15.93;7.60;;;12.50;99.90;;;;;;5073852;28;20198;-77
2021/10/17 07:47:20;;;;;;;15.07;6.53;;;12.50;99.90;;;;;;5074091;28;20291;-79
2021/10/17 07:49:45;;;;;;;16.40;7.60;;;12.60;99.90;;;;;;5074245;28;20649;-80
2021/10/17 07:52:11;;;;;;;17.30;8.00;;;12.60;99.90;;;;;;5074340;28;20743;-80
2021/10/17 07:54:38;;;;;;;16.60;8.45;;;12.70;99.90;;;;;;5072599;28;20832;-78
2021/10/17 07:57:04;;;;;;;17.00;7.57;;;12.80;99.90;;;;;;5073549;28;20171;-78
2021/10/17 07:59:30;;;;;;;24.95;7.53;;;12.90;99.90;;;;;;5073773;28;20182;-79
2021/10/17 08:01:56;;;;;;;20.70;7.63;;;13.00;99.90;;;;;;5073794;28;20163;-78
2021/10/17 08:04:21;;;;;;;19.05;7.47;;;12.90;99.90;;;;;;5073862;28;20179;-81
2021/10/17 08:06:47;;;;;;;15.00;8.27;;;13.00;99.90;;;;;;5074270;28;20704;-78
2021/10/17 08:09:12;;;;;;;24.45;7.80;;;13.00;99.90;;;;;;5073534;28;20162;-79
2021/10/17 08:11:38;;;;;;;22.38;7.43;;;13.00;99.90;;;;;;5073843;28;20565;-79
2021/10/17 08:14:04;;;;;;;16.98;7.47;;;13.10;99.90;;;;;;5072290;28;20178;-78
2021/10/17 08:16:29;;;;;;;16.13;7.80;;;13.10;99.90;;;;;;5073526;28;20166;-79
2021/10/17 08:18:55;;;;;;;15.18;7.65;;;13.20;99.90;;;;;;5073338;28;20183;-78
2021/10/17 08:21:21;;;;;;;14.73;6.28;;;13.20;99.90;;;;;;5073413;28;20243;-79
2021/10/17 08:23:46;;;;;;;15.23;6.28;;;13.10;99.90;;;;;;5073334;28;20563;-77
2021/10/17 08:26:13;;;;;;;23.55;7.10;;;13.30;99.90;;;;;;5073561;28;20170;-78
2021/10/17 08:28:39;;;;;;;19.08;6.78;;;13.60;99.90;;;;;;5072078;28;20186;-78
2021/10/17 08:31:06;;;;;;;17.83;7.30;;;13.80;99.90;;;;;;5073257;28;20550;-78
2021/10/17 08:33:38;;;;;;;15.45;7.32;;;13.90;99.90;;;;;;5073462;28;20676;-77
2021/10/17 08:36:03;;;;;;;10.77;6.43;;;13.90;99.90;;;;;;5073089;28;20169;-78
2021/10/17 08:38:29;;;;;;;14.52;7.45;;;13.80;99.90;;;;;;5072972;28;20199;-79
2021/10/17 08:40:59;;;;;;;9.80;6.85;;;13.80;99.90;;;;;;5073097;28;20170;-79
2021/10/17 08:43:25;;;;;;;20.17;7.55;;;13.90;99.90;;;;;;5081391;28;20259;-79
2021/10/17 08:45:50;;;;;;;18.15;9.30;;;13.90;99.90;;;;;;5093940;28;20170;-79
2021/10/17 08:48:17;;;;;;;28.23;10.40;;;14.20;99.90;;;;;;5094545;28;20253;-78
2021/10/17 08:50:44;;;;;;;17.67;7.43;;;14.30;99.90;;;;;;5095997;28;20206;-77
2021/10/17 08:53:10;;;;;;;13.65;7.47;;;14.20;99.90;;;;;;5093703;28;20162;-79
2021/10/17 08:55:35;;;;;;;20.38;8.10;;;14.30;99.90;;;;;;5075736;28;20662;-79
2021/10/17 08:58:01;;;;;;;21.30;9.75;;;14.50;99.90;;;;;;5074165;28;20282;-78
2021/10/17 09:00:32;;;;;;;12.63;8.02;;;14.60;99.90;;;;;;5073775;28;20179;-79
2021/10/17 09:02:59;;;;;;;27.45;8.75;;;14.50;99.90;;;;;;5073147;28;20158;-78
2021/10/17 09:05:44;;;;;;;16.35;7.78;;;14.70;99.90;;;;;;5073136;28;20162;-82
2021/10/17 09:08:15;;;;;;;12.55;6.97;;;14.80;99.90;;;;;;5071133;28;20264;-81
2021/10/17 09:10:42;;;;;;;17.02;8.13;;;14.90;99.90;;;;;;5071191;28;20206;-80
2021/10/17 09:13:15;;;;;;;18.20;7.50;;;15.10;99.90;;;;;;5072710;28;20166;-80
2021/10/17 09:15:43;;;;;;;16.60;7.15;;;15.20;99.90;;;;;;5072856;28;20642;-79
2021/10/17 09:18:19;;;;;;;13.60;8.23;;;15.20;99.90;;;;;;5072810;28;20178;-78
2021/10/17 09:20:47;;;;;;;9.90;6.82;;;15.30;99.90;;;;;;5072093;28;20174;-79
2021/10/17 09:23:15;;;;;;;17.77;6.57;;;15.30;99.90;;;;;;5072968;28;20155;-79
2021/10/17 09:25:41;;;;;;;14.10;5.82;;;15.60;99.90;;;;;;5071428;28;20174;-77
2021/10/17 09:28:18;;;;;;;15.00;5.97;;;15.80;99.90;;;;;;5072238;28;20221;-79
2021/10/17 09:30:56;;;;;;;11.98;5.75;;;15.60;99.90;;;;;;5072252;28;20205;-79
2021/10/17 09:33:22;;;;;;;10.80;6.07;;;15.80;99.90;;;;;;5071585;28;20170;-79
2021/10/17 09:35:48;;;;;;;13.10;6.18;;;15.80;99.90;;;;;;5072411;28;20178;-79
2021/10/17 09:38:19;;;;;;;7.90;5.32;;;15.70;99.90;;;;;;5072638;28;20570;-79
2021/10/17 09:40:46;;;;;;;9.93;6.00;;;15.70;99.90;;;;;;5072661;28;20174;-79
2021/10/17 09:43:25;;;;;;;15.02;8.07;;;16.00;99.90;;;;;;5072236;28;20518;-79
2021/10/17 09:46:13;;;;;;;13.18;7.10;;;16.10;99.90;;;;;;5072635;28;20496;-78
2021/10/17 09:48:39;;;;;;;15.85;7.78;;;15.80;99.90;;;;;;5071853;28;20394;-79
2021/10/17 09:51:10;;;;;;;8.15;5.15;;;15.90;99.90;;;;;;5072227;28;20206;-78
2021/10/17 09:53:52;;;;;;;11.02;5.45;;;15.90;99.90;;;;;;5072299;28;20171;-77
2021/10/17 09:56:35;;;;;;;10.00;5.07;;;16.00;99.90;;;;;;5072206;28;20717;-77
2021/10/17 09:59:09;;;;;;;15.02;6.85;;;16.10;99.90;;;;;;5072228;28;20194;-81
2021/10/17 10:01:36;;;;;;;11.73;6.78;;;16.40;99.90;;;;;;5072577;28;20174;-79
2021/10/17 10:04:04;;;;;;;17.00;5.55;;;16.50;99.90;;;;;;5072496;28;20171;-79
2021/10/17 10:06:30;;;;;;;12.18;6.13;;;16.10;99.90;;;;;;5071926;28;20246;-79
2021/10/17 10:09:00;;;;;;;11.38;5.93;;;16.10;99.90;;;;;;5072064;28;20225;-79
2021/10/17 10:11:27;;;;;;;11.68;6.18;;;16.30;99.90;;;;;;5072442;28;20693;-78
2021/10/17 10:13:55;;;;;;;13.45;5.63;;;16.60;99.90;;;;;;5072466;28;20170;-80
2021/10/17 10:16:25;;;;;;;11.35;5.90;;;16.40;99.90;;;;;;5072052;28;20167;-78
2021/10/17 10:19:04;;;;;;;16.95;5.78;;;16.60;99.90;;;;;;5071640;28;20269;-78
2021/10/17 10:21:30;;;;;;;11.57;6.68;;;16.60;99.90;;;;;;5071900;28;20640;-79
2021/10/17 10:23:58;;;;;;;9.07;5.57;;;16.80;99.90;;;;;;5071886;28;20163;-77
2021/10/17 10:26:26;;;;;;;10.27;5.72;;;16.90;99.90;;;;;;5071888;28;20170;-79
2021/10/17 10:28:53;;;;;;;13.82;6.25;;;17.00;99.90;;;;;;5071898;28;20240;-79
2021/10/17 10:31:45;;;;;;;32.97;7.53;;;17.20;99.90;;;;;;5072439;28;20668;-81
2021/10/17 10:34:31;;;;;;;14.75;5.95;;;17.30;99.90;;;;;;5075378;28;20568;-78
2021/10/17 10:36:56;;;;;;;16.92;6.22;;;17.20;99.90;;;;;;5065167;28;20192;-79
2021/10/17 10:39:23;;;;;;;16.63;6.70;;;16.90;99.90;;;;;;5075718;28;20706;-80
2021/10/17 10:42:15;;;;;;;10.27;6.22;;;16.80;99.90;;;;;;5075263;28;20223;-79
2021/10/17 10:44:41;;;;;;;22.67;6.47;;;17.20;99.90;;;;;;5075444;28;20169;-79
2021/10/17 10:47:26;;;;;;;9.13;6.32;;;17.40;99.90;;;;;;5075490;28;20233;-79
2021/10/17 10:49:54;;;;;;;20.90;6.03;;;17.60;99.90;;;;;;5075287;28;20170;-78
2021/10/17 10:52:28;;;;;;;13.63;6.03;;;17.90;99.90;;;;;;5074999;28;20695;-79
2021/10/17 10:54:58;;;;;;;14.07;6.55;;;18.10;99.90;;;;;;5075172;28;20166;-79
2021/10/17 10:57:35;;;;;;;9.35;5.78;;;18.10;99.90;;;;;;5075264;28;20193;-78
2021/10/17 11:00:12;;;;;;;9.02;5.10;;;18.20;99.90;;;;;;5075218;28;20239;-79
2021/10/17 11:02:39;;;;;;;18.08;7.15;;;18.00;99.90;;;;;;5074767;28;20646;-79
2021/10/17 11:05:16;;;;;;;11.10;5.35;;;17.70;99.90;;;;;;5074989;28;20641;-78
2021/10/17 11:07:43;;;;;;;16.80;6.00;;;17.00;99.90;;;;;;5074921;28;20203;-78
2021/10/17 11:10:26;;;;;;;9.43;5.88;;;16.90;99.90;;;;;;5074833;28;20174;-79
2021/10/17 11:12:57;;;;;;;13.02;5.78;;;17.30;99.90;;;;;;5074972;28;20174;-78
2021/10/17 11:15:31;;;;;;;19.65;6.15;;;17.20;99.90;;;;;;5074813;28;20166;-79
2021/10/17 11:18:15;;;;;;;16.67;4.93;;;16.90;99.90;;;;;;5074748;28;20190;-77
2021/10/17 11:20:50;;;;;;;6.93;4.90;;;16.70;99.90;;;;;;5074776;28;20573;-78
2021/10/17 11:23:23;;;;;;;10.00;5.55;;;16.90;99.90;;;;;;5074872;28;20170;-78
2021/10/17 11:26:08;;;;;;;7.72;4.28;;;17.30;99.90;;;;;;5074673;28;20167;-78
2021/10/17 11:28:37;;;;;;;10.57;4.53;;;17.30;99.90;;;;;;5074551;28;20255;-78
2021/10/17 11:31:12;;;;;;;7.28;4.35;;;17.10;99.90;;;;;;5074200;28;20202;-78
2021/10/17 11:33:43;;;;;;;9.50;4.30;;;17.20;99.90;;;;;;5074670;28;20173;-77
2021/10/17 11:36:11;;;;;;;11.05;3.95;;;17.50;99.90;;;;;;5074306;28;20167;-77
2021/10/17 11:38:37;;;;;;;13.68;4.90;;;17.70;99.90;;;;;;5074337;28;20186;-78
2021/10/17 11:41:07;;;;;;;5.97;3.25;;;17.60;99.90;;;;;;5074467;28;20499;-78
2021/10/17 11:43:35;;;;;;;7.28;3.65;;;17.80;99.90;;;;;;5073584;28;20166;-78
2021/10/17 11:46:04;;;;;;;8.95;3.47;;;17.80;99.90;;;;;;5074277;28;20317;-78
2021/10/17 11:48:30;;;;;;;7.78;3.92;;;17.80;99.90;;;;;;5073962;28;20179;-79
2021/10/17 11:50:55;;;;;;;11.00;4.60;;;17.80;99.90;;;;;;5074028;28;20194;-81
2021/10/17 11:53:21;;;;;;;8.27;4.40;;;18.00;99.90;;;;;;5074336;28;20533;-80
2021/10/17 11:55:49;;;;;;;7.28;4.13;;;18.00;99.90;;;;;;5074272;28;20175;-79
2021/10/17 11:58:18;;;;;;;7.60;4.47;;;18.20;99.90;;;;;;5072763;28;20269;-77
2021/10/17 12:00:45;;;;;;;6.55;4.38;;;17.90;99.90;;;;;;5073884;28;20179;-78
2021/10/17 12:03:12;;;;;;;6.00;2.90;;;17.80;99.90;;;;;;5073619;28;20583;-78
2021/10/17 12:05:44;;;;;;;9.00;3.47;;;17.90;99.90;;;;;;5073739;28;20173;-79
2021/10/17 12:08:23;;;;;;;7.13;2.85;;;18.00;99.90;;;;;;5073988;28;20208;-79
2021/10/17 12:10:59;;;;;;;6.45;2.83;;;18.10;99.90;;;;;;5073704;28;20201;-81
2021/10/17 12:13:26;;;;;;;4.32;2.70;;;18.10;99.90;;;;;;5073394;28;20211;-79
2021/10/17 12:16:12;;;;;;;8.88;3.40;;;18.00;99.90;;;;;;5073712;28;20181;-80
2021/10/17 12:19:02;;;;;;;4.60;2.60;;;17.80;99.90;;;;;;5073565;28;20191;-79
2021/10/17 12:21:31;;;;;;;7.80;3.75;;;17.80;99.90;;;;;;5073475;28;20261;-81
2021/10/17 12:24:00;;;;;;;4.70;3.55;;;17.70;99.90;;;;;;5073392;28;20161;-79
2021/10/17 12:26:28;;;;;;;4.22;2.85;;;17.70;99.90;;;;;;5073600;28;20190;-79
2021/10/17 12:29:22;;;;;;;3.45;3.00;;;17.80;99.90;;;;;;5073329;28;20231;-79
2021/10/17 12:31:52;;;;;;;19.52;3.60;;;18.00;99.90;;;;;;5070926;28;20218;-78
2021/10/17 12:34:40;;;;;;;10.15;3.03;;;18.10;99.90;;;;;;5072923;28;20577;-79
2021/10/17 12:37:07;;;;;;;15.68;2.95;;;18.00;99.90;;;;;;5073054;28;20193;-78
2021/10/17 12:39:36;;;;;;;8.25;2.75;;;17.90;99.90;;;;;;5072095;28;20167;-82